createdAt,value
2017-07-28T00:00:08.197Z,47.6
2017-07-28T00:02:06.116Z,47.6
2017-07-28T00:04:05.838Z,47.6
2017-07-28T00:06:05.175Z,47.6
2017-07-28T00:08:08.081Z,47.6
2017-07-28T00:10:05.798Z,47.6
2017-07-28T00:12:05.505Z,47.6
2017-07-28T00:14:05.293Z,47.6
2017-07-28T00:16:10.093Z,47.6
2017-07-28T00:18:05.509Z,47.6
2017-07-28T00:20:05.244Z,47.6
2017-07-28T00:22:05.039Z,47.6
2017-07-28T00:24:06.054Z,47.6
2017-07-28T00:26:05.841Z,47.6
2017-07-28T00:28:05.540Z,47.6
2017-07-28T00:30:15.361Z,47.6
2017-07-28T00:32:05.056Z,47.4
2017-07-28T00:34:08.225Z,47.6
2017-07-28T00:36:05.917Z,47.6
2017-07-28T00:38:05.658Z,47.5
2017-07-28T00:40:06.159Z,47.3
2017-07-28T00:42:10.938Z,47.3
2017-07-28T00:44:07.744Z,47.3
2017-07-28T00:46:05.543Z,47.3
2017-07-28T00:48:05.206Z,47.5
2017-07-28T00:50:05.610Z,47.5
2017-07-28T00:52:07.883Z,47.5
2017-07-28T00:54:08.120Z,47.3
2017-07-28T00:56:05.983Z,47.2
2017-07-28T00:58:08.236Z,47.2
2017-07-28T01:00:05.989Z,47.2
2017-07-28T01:02:05.809Z,47.5
2017-07-28T01:04:05.599Z,47.2
2017-07-28T01:06:08.332Z,47.5
2017-07-28T01:08:05.247Z,47.2
2017-07-28T01:10:06.024Z,47.2
2017-07-28T01:12:05.596Z,47.2
2017-07-28T01:14:05.842Z,47.4
2017-07-28T01:16:05.096Z,47.2
2017-07-28T01:18:06.076Z,47.2
2017-07-28T01:20:05.452Z,47.4
2017-07-28T01:22:07.655Z,47.1
2017-07-28T01:24:05.518Z,47.1
2017-07-28T01:26:05.348Z,47.1
2017-07-28T01:28:05.188Z,47.1
2017-07-28T01:30:05.404Z,47.1
2017-07-28T01:32:05.178Z,47.2
2017-07-28T01:34:05.866Z,47.1
2017-07-28T01:36:05.564Z,47.1
2017-07-28T01:38:05.292Z,47.2
2017-07-28T01:40:05.994Z,47.1
2017-07-28T01:42:05.227Z,47.1
2017-07-28T01:44:11.147Z,47.1
2017-07-28T01:46:05.821Z,47.1
2017-07-28T01:48:05.522Z,47.1
2017-07-28T01:50:17.901Z,47.1
2017-07-28T01:52:05.642Z,47.1
2017-07-28T01:54:05.370Z,47.1
2017-07-28T01:56:05.080Z,47.1
2017-07-28T01:58:05.302Z,47.1
2017-07-28T02:00:06.063Z,47.1
2017-07-28T02:02:13.462Z,47.1
2017-07-28T02:04:10.284Z,47.1
2017-07-28T02:06:08.523Z,47
2017-07-28T02:08:05.348Z,47
2017-07-28T02:10:07.822Z,47.1
2017-07-28T02:12:07.639Z,47.1
2017-07-28T02:14:05.957Z,47.1
2017-07-28T02:16:05.982Z,47.1
2017-07-28T02:18:08.067Z,47.1
2017-07-28T02:20:05.541Z,47
2017-07-28T02:22:17.881Z,47.1
2017-07-28T02:24:05.554Z,47.1
2017-07-28T02:26:05.306Z,47.1
2017-07-28T02:28:05.073Z,47
2017-07-28T02:30:05.772Z,47.1
2017-07-28T02:32:05.789Z,47.1
2017-07-28T02:34:05.555Z,47.1
2017-07-28T02:36:05.320Z,47.1
2017-07-28T02:38:05.203Z,46.9
2017-07-28T02:40:08.543Z,47.1
2017-07-28T02:42:05.249Z,47.1
2017-07-28T02:44:05.956Z,47.1
2017-07-28T02:46:08.206Z,47.1
2017-07-28T02:48:06.080Z,47.1
2017-07-28T02:50:06.068Z,47
2017-07-28T02:52:08.299Z,47
2017-07-28T02:54:08.640Z,46.8
2017-07-28T02:56:05.711Z,47
2017-07-28T02:58:10.480Z,47
2017-07-28T03:00:05.734Z,46.8
2017-07-28T03:02:05.534Z,47
2017-07-28T03:04:07.839Z,46.8
2017-07-28T03:06:05.556Z,46.8
2017-07-28T03:08:05.419Z,47
2017-07-28T03:10:05.153Z,46.8
2017-07-28T03:12:08.361Z,46.8
2017-07-28T03:14:05.587Z,46.8
2017-07-28T03:16:05.350Z,46.8
2017-07-28T03:18:05.481Z,47.1
2017-07-28T03:20:06.094Z,47
2017-07-28T03:22:05.785Z,46.8
2017-07-28T03:24:05.999Z,46.7
2017-07-28T03:26:10.989Z,46.8
2017-07-28T03:28:05.656Z,46.7
2017-07-28T03:30:10.461Z,46.8
2017-07-28T03:32:05.221Z,46.8
2017-07-28T03:34:05.904Z,46.8
2017-07-28T03:36:10.870Z,46.7
2017-07-28T03:38:05.578Z,46.7
2017-07-28T03:40:05.263Z,46.7
2017-07-28T03:42:05.967Z,46.7
2017-07-28T03:44:13.580Z,46.8
2017-07-28T03:46:05.290Z,46.8
2017-07-28T03:48:05.011Z,46.7
2017-07-28T03:50:05.786Z,46.7
2017-07-28T03:52:07.732Z,46.7
2017-07-28T03:54:05.489Z,46.7
2017-07-28T03:56:08.083Z,46.7
2017-07-28T03:58:05.791Z,46.7
2017-07-28T04:00:05.041Z,46.7
2017-07-28T04:02:05.646Z,46.7
2017-07-28T04:04:05.339Z,46.7
2017-07-28T04:06:07.680Z,46.7
2017-07-28T04:08:05.778Z,46.7
2017-07-28T04:10:05.133Z,46.6
2017-07-28T04:12:08.419Z,46.7
2017-07-28T04:14:07.747Z,46.7
2017-07-28T04:16:05.474Z,46.6
2017-07-28T04:18:05.413Z,46.6
2017-07-28T04:20:05.250Z,46.7
2017-07-28T04:22:05.481Z,46.7
2017-07-28T04:24:10.437Z,46.7
2017-07-28T04:26:05.291Z,46.7
2017-07-28T04:28:05.952Z,46.7
2017-07-28T04:30:08.265Z,46.7
2017-07-28T04:32:06.197Z,46.7
2017-07-28T04:34:08.424Z,46.7
2017-07-28T04:36:05.110Z,46.7
2017-07-28T04:38:05.902Z,47.1
2017-07-28T04:40:08.449Z,47
2017-07-28T04:42:10.239Z,47
2017-07-28T04:44:06.031Z,47
2017-07-28T04:46:05.753Z,47.1
2017-07-28T04:48:07.997Z,47.1
2017-07-28T04:50:06.029Z,47.1
2017-07-28T04:52:05.733Z,47.1
2017-07-28T04:54:08.559Z,47.2
2017-07-28T04:56:09.379Z,47.4
2017-07-28T04:58:05.156Z,47.3
2017-07-28T05:00:05.857Z,47.3
2017-07-28T05:02:05.761Z,47.3
2017-07-28T05:04:05.491Z,47.3
2017-07-28T05:06:05.187Z,47.4
2017-07-28T05:08:05.985Z,47.4
2017-07-28T05:10:08.232Z,47.8
2017-07-28T05:12:05.951Z,47.8
2017-07-28T05:14:06.064Z,47.6
2017-07-28T05:16:05.430Z,47.9
2017-07-28T05:18:10.393Z,47.5
2017-07-28T05:20:05.250Z,47.5
2017-07-28T05:22:08.486Z,47.7
2017-07-28T05:24:10.238Z,47.8
2017-07-28T05:26:13.689Z,47.9
2017-07-28T05:28:06.004Z,47.9
2017-07-28T05:30:05.703Z,47.9
2017-07-28T05:32:08.087Z,48.2
2017-07-28T05:34:05.742Z,48.1
2017-07-28T05:36:05.425Z,48.2
2017-07-28T05:38:05.266Z,48
2017-07-28T05:40:08.531Z,48.3
2017-07-28T05:42:12.815Z,48.1
2017-07-28T05:44:05.715Z,47.9
2017-07-28T05:46:08.005Z,48.1
2017-07-28T05:48:05.717Z,48.1
2017-07-28T05:50:05.652Z,48.1
2017-07-28T05:52:05.396Z,48.1
2017-07-28T05:54:05.148Z,48
2017-07-28T05:56:11.145Z,48.2
2017-07-28T05:58:05.871Z,48
2017-07-28T06:00:08.483Z,48.1
2017-07-28T06:02:10.917Z,48.1
2017-07-28T06:04:08.167Z,48
2017-07-28T06:06:08.384Z,48
2017-07-28T06:08:05.107Z,48
2017-07-28T06:10:05.829Z,48.3
2017-07-28T06:12:08.094Z,48.2
2017-07-28T06:14:05.820Z,48.2
2017-07-28T06:16:05.666Z,48.1
2017-07-28T06:18:08.155Z,48.1
2017-07-28T06:20:08.606Z,48.1
2017-07-28T06:22:05.329Z,48.3
2017-07-28T06:24:07.788Z,48.2
2017-07-28T06:26:05.835Z,48.3
2017-07-28T06:28:05.513Z,48.2
2017-07-28T06:30:05.236Z,48.1
2017-07-28T06:32:08.105Z,48.1
2017-07-28T06:34:10.893Z,48.2
2017-07-28T06:36:05.398Z,48.4
2017-07-28T06:38:05.430Z,48.3
2017-07-28T06:40:05.137Z,48.1
2017-07-28T06:42:05.844Z,48.3
2017-07-28T06:44:05.645Z,48.3
2017-07-28T06:46:05.502Z,48.3
2017-07-28T06:48:05.622Z,48.2
2017-07-28T06:50:05.546Z,48.2
2017-07-28T06:52:05.260Z,48.2
2017-07-28T06:54:08.534Z,48.4
2017-07-28T06:56:05.957Z,48.5
2017-07-28T06:58:05.711Z,48.4
2017-07-28T07:00:05.407Z,48.4
2017-07-28T07:02:07.993Z,48.3
2017-07-28T07:04:05.888Z,48.3
2017-07-28T07:06:05.602Z,48.5
2017-07-28T07:08:08.278Z,48.2
2017-07-28T07:10:10.692Z,48.4
2017-07-28T07:12:05.393Z,48.4
2017-07-28T07:14:05.246Z,48.4
2017-07-28T07:16:05.926Z,48.4
2017-07-28T07:18:07.912Z,48.4
2017-07-28T07:20:06.098Z,48.4
2017-07-28T07:22:05.876Z,48.4
2017-07-28T07:24:05.176Z,48.4
2017-07-28T07:26:05.983Z,48.4
2017-07-28T07:28:05.673Z,48.4
2017-07-28T07:30:05.363Z,48.4
2017-07-28T07:32:05.079Z,48.4
2017-07-28T07:34:05.834Z,48.4
2017-07-28T07:36:10.264Z,48.5
2017-07-28T07:38:06.281Z,48.2
2017-07-28T07:40:08.567Z,48.3
2017-07-28T07:42:10.320Z,48.4
2017-07-28T07:44:07.727Z,48.4
2017-07-28T07:46:13.010Z,48.2
2017-07-28T07:48:08.239Z,48.2
2017-07-28T07:50:08.148Z,48.2
2017-07-28T07:52:05.871Z,48.2
2017-07-28T07:54:05.538Z,48.2
2017-07-28T07:56:05.885Z,48.3
2017-07-28T07:58:08.122Z,48.3
2017-07-28T08:00:05.885Z,48.3
2017-07-28T08:02:08.328Z,48.2
2017-07-28T08:04:05.079Z,48.2
2017-07-28T08:06:05.785Z,48.3
2017-07-28T08:08:06.096Z,48.2
2017-07-28T08:10:08.338Z,48.3
2017-07-28T08:12:05.571Z,48.3
2017-07-28T08:14:05.596Z,48.3
2017-07-28T08:16:05.454Z,48.3
2017-07-28T08:18:05.371Z,48.3
2017-07-28T08:20:05.225Z,48.3
2017-07-28T08:22:05.894Z,48.3
2017-07-28T08:24:05.757Z,48.1
2017-07-28T08:26:05.620Z,48.1
2017-07-28T08:28:05.354Z,48.1
2017-07-28T08:30:15.164Z,48.2
2017-07-28T08:32:05.955Z,48.2
2017-07-28T08:34:05.670Z,48.1
2017-07-28T08:36:05.342Z,48.1
2017-07-28T08:38:07.934Z,48.1
2017-07-28T08:40:13.207Z,48.1
2017-07-28T08:42:08.434Z,48.1
2017-07-28T08:44:05.161Z,48.1
2017-07-28T08:46:08.595Z,48.1
2017-07-28T08:48:05.407Z,48.1
2017-07-28T08:50:05.296Z,48.1
2017-07-28T08:52:05.514Z,48.1
2017-07-28T08:54:07.749Z,48.1
2017-07-28T08:56:05.545Z,48.1
2017-07-28T08:58:07.856Z,48.2
2017-07-28T09:00:05.607Z,48
2017-07-28T09:02:05.468Z,48.2
2017-07-28T09:04:05.297Z,48.1
2017-07-28T09:06:05.710Z,48.1
2017-07-28T09:08:06.114Z,48
2017-07-28T09:10:05.951Z,48.3
2017-07-28T09:12:05.878Z,48
2017-07-28T09:14:08.137Z,48
2017-07-28T09:16:05.827Z,48
2017-07-28T09:18:05.241Z,48
2017-07-28T09:20:06.013Z,48.1
2017-07-28T09:22:13.307Z,48
2017-07-28T09:24:06.092Z,48
2017-07-28T09:26:05.451Z,48
2017-07-28T09:28:07.813Z,48.1
2017-07-28T09:30:05.483Z,48.1
2017-07-28T09:32:05.220Z,48.1
2017-07-28T09:34:08.443Z,48.1
2017-07-28T09:36:07.689Z,48.1
2017-07-28T09:38:05.855Z,48.1
2017-07-28T09:40:05.547Z,48.1
2017-07-28T09:42:05.249Z,48.1
2017-07-28T09:44:06.125Z,48
2017-07-28T09:46:10.907Z,48
2017-07-28T09:48:05.626Z,48
2017-07-28T09:50:05.401Z,48.1
2017-07-28T09:52:05.129Z,48.1
2017-07-28T09:54:10.936Z,48
2017-07-28T09:56:05.668Z,48
2017-07-28T09:58:05.367Z,48
2017-07-28T10:00:05.282Z,48.2
2017-07-28T10:02:08.670Z,48.2
2017-07-28T10:04:08.014Z,48.2
2017-07-28T10:06:10.774Z,48
2017-07-28T10:08:08.017Z,48
2017-07-28T10:10:08.305Z,48.2
2017-07-28T10:12:06.091Z,48
2017-07-28T10:14:05.502Z,48.2
2017-07-28T10:16:05.511Z,48.2
2017-07-28T10:18:05.444Z,48
2017-07-28T10:20:05.321Z,48.2
2017-07-28T10:22:07.654Z,48.2
2017-07-28T10:24:08.441Z,48.2
2017-07-28T10:26:07.749Z,48.2
2017-07-28T10:28:05.492Z,48.2
2017-07-28T10:30:07.732Z,48.2
2017-07-28T10:32:10.645Z,48
2017-07-28T10:34:05.925Z,47.9
2017-07-28T10:36:05.646Z,48.1
2017-07-28T10:38:13.699Z,47.9
2017-07-28T10:40:05.417Z,47.9
2017-07-28T10:42:05.697Z,48.2
2017-07-28T10:44:05.748Z,48.2
2017-07-28T10:46:07.974Z,48
2017-07-28T10:48:05.814Z,48
2017-07-28T10:50:05.527Z,48
2017-07-28T10:52:07.755Z,48
2017-07-28T10:54:10.100Z,48
2017-07-28T10:56:05.503Z,48
2017-07-28T10:58:10.311Z,48
2017-07-28T11:00:05.997Z,48
2017-07-28T11:02:08.237Z,48
2017-07-28T11:04:06.164Z,48
2017-07-28T11:06:10.929Z,48
2017-07-28T11:08:08.435Z,48
2017-07-28T11:10:05.139Z,48
2017-07-28T11:12:05.834Z,48
2017-07-28T11:14:05.761Z,48
2017-07-28T11:16:05.540Z,48.1
2017-07-28T11:18:05.443Z,48
2017-07-28T11:20:05.373Z,48
2017-07-28T11:22:05.661Z,48
2017-07-28T11:24:07.976Z,48
2017-07-28T11:26:05.870Z,48
2017-07-28T11:28:07.650Z,48
2017-07-28T11:30:07.924Z,48
2017-07-28T11:32:10.867Z,47.8
2017-07-28T11:34:05.571Z,48
2017-07-28T11:36:10.822Z,48
2017-07-28T11:38:05.173Z,48
2017-07-28T11:40:06.016Z,48.1
2017-07-28T11:42:05.815Z,48
2017-07-28T11:44:12.289Z,48
2017-07-28T11:46:07.556Z,48
2017-07-28T11:48:05.512Z,48
2017-07-28T11:50:05.728Z,48
2017-07-28T11:52:15.641Z,47.8
2017-07-28T11:54:10.431Z,48
2017-07-28T11:56:05.643Z,47.8
2017-07-28T11:58:05.954Z,48
2017-07-28T12:00:05.340Z,48
2017-07-28T12:02:05.265Z,48
2017-07-28T12:04:06.043Z,48
2017-07-28T12:06:10.417Z,48
2017-07-28T12:08:05.571Z,48
2017-07-28T12:10:07.882Z,48
2017-07-28T12:12:05.893Z,47.7
2017-07-28T12:14:05.543Z,48
2017-07-28T12:16:05.901Z,48
2017-07-28T12:18:06.097Z,48
2017-07-28T12:20:13.446Z,48
2017-07-28T12:22:07.709Z,48
2017-07-28T12:24:05.525Z,48
2017-07-28T12:26:08.328Z,48
2017-07-28T12:28:05.264Z,47.7
2017-07-28T12:30:06.175Z,48
2017-07-28T12:32:08.091Z,48
2017-07-28T12:34:05.799Z,48
2017-07-28T12:36:05.595Z,48
2017-07-28T12:38:12.499Z,48
2017-07-28T12:40:05.736Z,48
2017-07-28T12:42:05.923Z,48
2017-07-28T12:44:06.125Z,48
2017-07-28T12:46:05.363Z,48
2017-07-28T12:48:07.606Z,48
2017-07-28T12:50:08.028Z,48
2017-07-28T12:52:08.276Z,48
2017-07-28T12:54:05.968Z,48
2017-07-28T12:56:08.552Z,48
2017-07-28T12:58:05.775Z,47.8
2017-07-28T13:00:05.480Z,48
2017-07-28T13:02:05.362Z,48
2017-07-28T13:04:05.103Z,48
2017-07-28T13:06:06.756Z,48
2017-07-28T13:08:05.604Z,47.8
2017-07-28T13:10:05.858Z,47.8
2017-07-28T13:12:05.606Z,47.8
2017-07-28T13:14:10.683Z,48
2017-07-28T13:16:05.434Z,48
2017-07-28T13:18:05.349Z,48
2017-07-28T13:20:05.271Z,47.8
2017-07-28T13:22:06.001Z,48
2017-07-28T13:24:05.458Z,47.8
2017-07-28T13:26:10.278Z,47.8
2017-07-28T13:28:10.340Z,47.8
2017-07-28T13:30:06.050Z,47.8
2017-07-28T13:32:05.837Z,48
2017-07-28T13:34:10.595Z,47.8
2017-07-28T13:36:08.346Z,47.8
2017-07-28T13:38:05.315Z,47.8
2017-07-28T13:40:05.093Z,47.8
2017-07-28T13:42:05.781Z,48
2017-07-28T13:44:13.511Z,48
2017-07-28T13:46:07.777Z,47.8
2017-07-28T13:48:07.609Z,48
2017-07-28T13:50:05.916Z,47.8
2017-07-28T13:52:05.712Z,48
2017-07-28T13:54:06.426Z,48
2017-07-28T13:56:12.652Z,48
2017-07-28T13:58:05.497Z,48
2017-07-28T14:00:12.757Z,48
2017-07-28T14:02:05.524Z,47.7
2017-07-28T14:04:12.831Z,47.8
2017-07-28T14:06:05.577Z,47.8
2017-07-28T14:08:05.967Z,48
2017-07-28T14:10:05.739Z,48
2017-07-28T14:12:05.443Z,48
2017-07-28T14:14:05.251Z,48
2017-07-28T14:16:05.152Z,47.9
2017-07-28T14:18:08.118Z,47.9
2017-07-28T14:20:06.003Z,47.9
2017-07-28T14:22:05.833Z,47.9
2017-07-28T14:24:07.796Z,47.9
2017-07-28T14:26:08.083Z,47.9
2017-07-28T14:28:05.371Z,47.9
2017-07-28T14:30:05.057Z,47.9
2017-07-28T14:32:05.394Z,47.9
2017-07-28T14:34:10.199Z,47.9
2017-07-28T14:36:05.177Z,47.9
2017-07-28T14:38:06.128Z,47.9
2017-07-28T14:40:05.925Z,47.7
2017-07-28T14:42:08.161Z,47.7
2017-07-28T14:44:05.737Z,47.7
2017-07-28T14:46:05.036Z,47.7
2017-07-28T14:48:06.077Z,47.8
2017-07-28T14:50:05.836Z,47.8
2017-07-28T14:52:07.749Z,47.8
2017-07-28T14:54:05.458Z,47.8
2017-07-28T14:56:07.748Z,47.8
2017-07-28T14:58:07.165Z,47.8
2017-07-28T15:00:05.893Z,47.8
2017-07-28T15:02:05.984Z,47.8
2017-07-28T15:04:06.073Z,47.8
2017-07-28T15:06:05.357Z,47.8
2017-07-28T15:08:05.100Z,47.8
2017-07-28T15:10:05.778Z,47.8
2017-07-28T15:12:05.016Z,47.8
2017-07-28T15:14:08.354Z,47.8
2017-07-28T15:16:05.093Z,47.8
2017-07-28T15:18:05.009Z,47.7
2017-07-28T15:20:05.996Z,48
2017-07-28T15:22:05.287Z,47.8
2017-07-28T15:24:05.564Z,48
2017-07-28T15:26:10.663Z,47.7
2017-07-28T15:28:05.409Z,47.7
2017-07-28T15:30:05.186Z,47.8
2017-07-28T15:32:05.898Z,47.7
2017-07-28T15:34:05.690Z,47.7
2017-07-28T15:36:08.102Z,47.7
2017-07-28T15:38:08.162Z,47.8
2017-07-28T15:40:05.881Z,47.8
2017-07-28T15:42:05.685Z,47.8
2017-07-28T15:44:05.400Z,47.8
2017-07-28T15:46:07.652Z,47.8
2017-07-28T15:48:05.381Z,47.8
2017-07-28T15:50:07.965Z,47.8
2017-07-28T15:52:05.680Z,47.8
2017-07-28T15:54:06.408Z,47.8
2017-07-28T15:56:06.060Z,47.8
2017-07-28T15:58:05.748Z,47.8
2017-07-28T16:00:05.780Z,47.8
2017-07-28T16:02:10.426Z,47.7
2017-07-28T16:04:06.167Z,47.7
2017-07-28T16:06:05.158Z,47.8
2017-07-28T16:08:05.588Z,47.7
2017-07-28T16:10:07.864Z,47.7
2017-07-28T16:12:10.675Z,47.7
2017-07-28T16:14:06.048Z,47.7
2017-07-28T16:16:05.865Z,47.8
2017-07-28T16:18:06.189Z,47.7
2017-07-28T16:20:06.260Z,47.7
2017-07-28T16:22:13.494Z,47.8
2017-07-28T16:24:05.944Z,47.8
2017-07-28T16:26:05.658Z,47.8
2017-07-28T16:28:05.921Z,47.8
2017-07-28T16:30:05.953Z,47.8
2017-07-28T16:32:06.020Z,47.8
2017-07-28T16:34:05.221Z,47.8
2017-07-28T16:36:05.977Z,47.8
2017-07-28T16:38:06.236Z,47.8
2017-07-28T16:40:06.242Z,47.8
2017-07-28T16:42:05.417Z,47.8
2017-07-28T16:44:13.035Z,47.8
2017-07-28T16:46:07.004Z,47.8
2017-07-28T16:48:05.934Z,47.8
2017-07-28T16:50:06.131Z,47.8
2017-07-28T16:52:08.425Z,47.8
2017-07-28T16:54:07.849Z,47.8
2017-07-28T16:56:05.815Z,47.8
2017-07-28T16:58:11.131Z,47.8
2017-07-28T17:00:05.197Z,47.8
2017-07-28T17:02:06.100Z,47.8
2017-07-28T17:04:05.909Z,47.8
2017-07-28T17:06:05.635Z,47.8
2017-07-28T17:08:06.386Z,47.8
2017-07-28T17:10:05.086Z,47.8
2017-07-28T17:12:05.985Z,47.8
2017-07-28T17:14:08.140Z,47.8
2017-07-28T17:16:08.320Z,47.8
2017-07-28T17:18:07.886Z,47.8
2017-07-28T17:20:08.428Z,47.8
2017-07-28T17:22:10.235Z,47.8
2017-07-28T17:24:08.518Z,47.9
2017-07-28T17:26:05.402Z,47.9
2017-07-28T17:28:07.857Z,47.9
2017-07-28T17:30:08.116Z,47.8
2017-07-28T17:32:05.940Z,47.8
2017-07-28T17:34:05.654Z,47.8
2017-07-28T17:36:20.494Z,47.6
2017-07-28T17:38:07.899Z,47.8
2017-07-28T17:40:05.721Z,47.6
2017-07-28T17:42:05.659Z,47.8
2017-07-28T17:44:05.537Z,47.8
2017-07-28T17:46:07.742Z,47.9
2017-07-28T17:48:07.988Z,47.9
2017-07-28T17:50:08.307Z,47.8
2017-07-28T17:52:05.540Z,47.6
2017-07-28T17:54:07.785Z,47.6
2017-07-28T17:56:05.818Z,47.6
2017-07-28T17:58:05.563Z,47.9
2017-07-28T18:00:05.361Z,47.7
2017-07-28T18:02:07.696Z,47.7
2017-07-28T18:04:05.522Z,47.7
2017-07-28T18:06:10.297Z,47.7
2017-07-28T18:08:06.247Z,47.7
2017-07-28T18:10:05.394Z,47.7
2017-07-28T18:12:05.144Z,47.7
2017-07-28T18:14:05.917Z,47.7
2017-07-28T18:16:15.842Z,47.7
2017-07-28T18:18:05.767Z,47.7
2017-07-28T18:20:06.621Z,47.7
2017-07-28T18:22:10.498Z,47.7
2017-07-28T18:24:07.762Z,47.7
2017-07-28T18:26:08.555Z,47.7
2017-07-28T18:28:10.852Z,47.8
2017-07-28T18:30:05.688Z,47.7
2017-07-28T18:32:05.609Z,47.7
2017-07-28T18:34:08.386Z,47.8
2017-07-28T18:36:05.098Z,47.8
2017-07-28T18:38:06.177Z,47.8
2017-07-28T18:40:05.904Z,47.8
2017-07-28T18:42:05.647Z,47.8
2017-07-28T18:44:06.480Z,47.8
2017-07-28T18:46:07.807Z,47.8
2017-07-28T18:48:05.679Z,47.5
2017-07-28T18:50:07.998Z,47.8
2017-07-28T18:52:05.795Z,47.8
2017-07-28T18:54:05.546Z,47.8
2017-07-28T18:56:08.111Z,47.6
2017-07-28T18:58:05.823Z,47.6
2017-07-28T19:00:05.557Z,47.8
2017-07-28T19:02:07.852Z,47.6
2017-07-28T19:04:05.941Z,47.9
2017-07-28T19:06:08.253Z,47.6
2017-07-28T19:08:06.022Z,47.6
2017-07-28T19:10:05.702Z,47.6
2017-07-28T19:12:05.425Z,47.6
2017-07-28T19:14:05.527Z,47.6
2017-07-28T19:16:07.814Z,47.6
2017-07-28T19:18:10.800Z,47.6
2017-07-28T19:20:05.660Z,47.6
2017-07-28T19:22:05.378Z,47.6
2017-07-28T19:24:10.111Z,47.7
2017-07-28T19:26:11.014Z,47.6
2017-07-28T19:28:05.760Z,47.6
2017-07-28T19:30:06.503Z,47.6
2017-07-28T19:32:05.560Z,47.6
2017-07-28T19:34:05.339Z,47.6
2017-07-28T19:36:12.807Z,47.6
2017-07-28T19:38:05.616Z,47.6
2017-07-28T19:40:08.435Z,47.6
2017-07-28T19:42:05.712Z,47.7
2017-07-28T19:44:05.464Z,47.6
2017-07-28T19:46:05.158Z,47.6
2017-07-28T19:48:11.041Z,47.6
2017-07-28T19:50:06.094Z,47.6
2017-07-28T19:52:06.060Z,47.6
2017-07-28T19:54:07.880Z,47.6
2017-07-28T19:56:08.324Z,47.6
2017-07-28T19:58:05.572Z,47.6
2017-07-28T20:00:07.893Z,47.6
2017-07-28T20:02:05.853Z,47.6
2017-07-28T20:04:05.560Z,47.6
2017-07-28T20:06:05.827Z,47.6
2017-07-28T20:08:08.323Z,47.7
2017-07-28T20:10:05.093Z,47.6
2017-07-28T20:12:05.317Z,47.7
2017-07-28T20:14:10.146Z,47.6
2017-07-28T20:16:05.867Z,47.6
2017-07-28T20:18:05.831Z,47.6
2017-07-28T20:20:05.432Z,47.6
2017-07-28T20:22:05.282Z,47.7
2017-07-28T20:24:08.632Z,47.6
2017-07-28T20:26:05.663Z,47.6
2017-07-28T20:28:06.313Z,47.7
2017-07-28T20:30:05.036Z,47.6
2017-07-28T20:32:08.487Z,47.6
2017-07-28T20:34:05.889Z,47.6
2017-07-28T20:36:05.656Z,47.7
2017-07-28T20:38:08.085Z,47.7
2017-07-28T20:40:05.882Z,47.7
2017-07-28T20:42:05.593Z,47.7
2017-07-28T20:44:05.948Z,47.6
2017-07-28T20:46:05.692Z,47.4
2017-07-28T20:48:10.495Z,47.7
2017-07-28T20:50:08.657Z,47.7
2017-07-28T20:52:08.509Z,47.7
2017-07-28T20:54:05.222Z,47.7
2017-07-28T20:56:06.180Z,47.7
2017-07-28T20:58:07.664Z,47.4
2017-07-28T21:00:06.069Z,47.7
2017-07-28T21:02:06.005Z,47.6
2017-07-28T21:04:08.245Z,47.7
2017-07-28T21:06:05.544Z,47.7
2017-07-28T21:08:05.324Z,47.4
2017-07-28T21:10:05.288Z,47.4
2017-07-28T21:12:05.253Z,47.4
2017-07-28T21:14:06.062Z,47.4
2017-07-28T21:16:05.765Z,47.4
2017-07-28T21:18:05.670Z,47.4
2017-07-28T21:20:05.588Z,47.4
2017-07-28T21:22:08.359Z,47.4
2017-07-28T21:24:05.340Z,47.4
2017-07-28T21:26:05.295Z,47.4
2017-07-28T21:28:06.146Z,47.4
2017-07-28T21:30:05.417Z,47.4
2017-07-28T21:32:05.269Z,47.4
2017-07-28T21:34:06.028Z,47.4
2017-07-28T21:36:05.764Z,47.4
2017-07-28T21:38:08.010Z,47.4
2017-07-28T21:40:05.685Z,47.4
2017-07-28T21:42:13.010Z,47.4
2017-07-28T21:44:08.465Z,47.4
2017-07-28T21:46:05.158Z,47.4
2017-07-28T21:48:05.547Z,47.4
2017-07-28T21:50:05.347Z,47.4
2017-07-28T21:52:06.561Z,47.4
2017-07-28T21:54:05.419Z,47.4
2017-07-28T21:56:05.249Z,47.4
2017-07-28T21:58:05.931Z,47.4
2017-07-28T22:00:05.769Z,47.4
2017-07-28T22:02:05.652Z,47.4
2017-07-28T22:04:05.453Z,47.4
2017-07-28T22:06:05.367Z,47.4
2017-07-28T22:08:05.223Z,47.4
2017-07-28T22:10:06.133Z,47.4
2017-07-28T22:12:05.824Z,47.4
2017-07-28T22:14:05.699Z,47.4
2017-07-28T22:16:06.099Z,47.4
2017-07-28T22:18:06.038Z,47.4
2017-07-28T22:20:07.265Z,47.4
2017-07-28T22:22:08.486Z,47.5
2017-07-28T22:24:05.149Z,47.5
2017-07-28T22:26:05.870Z,47.5
2017-07-28T22:28:06.605Z,47.4
2017-07-28T22:30:15.060Z,47.4
2017-07-28T22:32:05.762Z,47.4
2017-07-28T22:34:05.505Z,47.4
2017-07-28T22:36:05.959Z,47.4
2017-07-28T22:38:05.909Z,47.4
2017-07-28T22:40:08.152Z,47.4
2017-07-28T22:42:05.877Z,47.4
2017-07-28T22:44:05.745Z,47.4
2017-07-28T22:46:08.017Z,47.4
2017-07-28T22:48:08.271Z,47.5
2017-07-28T22:50:06.195Z,47.5
2017-07-28T22:52:05.882Z,47.5
2017-07-28T22:54:05.587Z,47.4
2017-07-28T22:56:05.374Z,47.4
2017-07-28T22:58:05.072Z,47.4
2017-07-28T23:00:05.351Z,47.4
2017-07-28T23:02:05.243Z,47.4
2017-07-28T23:04:06.059Z,47.4
2017-07-28T23:06:08.315Z,47.4
2017-07-28T23:08:05.044Z,47.5
2017-07-28T23:10:08.309Z,47.4
2017-07-28T23:12:08.153Z,47.2
2017-07-28T23:14:06.023Z,47.4
2017-07-28T23:16:05.786Z,47.2
2017-07-28T23:18:05.711Z,47.4
2017-07-28T23:20:08.292Z,47.4
2017-07-28T23:22:11.039Z,47.4
2017-07-28T23:24:08.268Z,47.2
2017-07-28T23:26:05.162Z,47.2
2017-07-28T23:28:05.843Z,47.4
2017-07-28T23:30:05.053Z,47.2
2017-07-28T23:32:05.793Z,47.2
2017-07-28T23:34:05.534Z,47.2
2017-07-28T23:36:10.556Z,47.2
2017-07-28T23:38:05.694Z,47.2
2017-07-28T23:40:05.393Z,47.2
2017-07-28T23:42:15.274Z,47.2
2017-07-28T23:44:05.522Z,47.4
2017-07-28T23:46:05.233Z,47.1
2017-07-28T23:48:08.023Z,47.2
2017-07-28T23:50:10.918Z,47.2
2017-07-28T23:52:07.724Z,47.2
2017-07-28T23:54:05.432Z,47.2
2017-07-28T23:56:05.787Z,47.1
2017-07-28T23:58:05.095Z,47.2
